sensor_id;sensor_type;location;lat;lon;timestamp;P1;durP1;ratioP1;P2;durP2;ratioP2
14768;SDS011;7476;49.404;11.152;2023-10-09T00:02:04;10.53;;;6.33;;
14768;SDS011;7476;49.404;11.152;2023-10-09T00:04:33;11.37;;;6.30;;
14768;SDS011;7476;49.404;11.152;2023-10-09T00:07:01;8.67;;;5.57;;
14768;SDS011;7476;49.404;11.152;2023-10-09T00:09:29;8.17;;;6.77;;
14768;SDS011;7476;49.404;11.152;2023-10-09T00:11:58;8.77;;;6.17;;
14768;SDS011;7476;49.404;11.152;2023-10-09T00:14:25;10.10;;;6.00;;
14768;SDS011;7476;49.404;11.152;2023-10-09T00:16:55;10.97;;;6.77;;
14768;SDS011;7476;49.404;11.152;2023-10-09T00:19:30;7.30;;;5.93;;
14768;SDS011;7476;49.404;11.152;2023-10-09T00:21:58;9.40;;;5.97;;
14768;SDS011;7476;49.404;11.152;2023-10-09T00:24:31;9.47;;;6.40;;
14768;SDS011;7476;49.404;11.152;2023-10-09T00:26:58;8.40;;;5.97;;
14768;SDS011;7476;49.404;11.152;2023-10-09T00:29:36;9.73;;;5.20;;
14768;SDS011;7476;49.404;11.152;2023-10-09T00:32:09;7.20;;;5.87;;
14768;SDS011;7476;49.404;11.152;2023-10-09T00:34:40;10.73;;;5.87;;
14768;SDS011;7476;49.404;11.152;2023-10-09T00:37:09;6.87;;;5.27;;
14768;SDS011;7476;49.404;11.152;2023-10-09T00:39:41;8.07;;;5.33;;
14768;SDS011;7476;49.404;11.152;2023-10-09T00:42:09;10.23;;;5.57;;
14768;SDS011;7476;49.404;11.152;2023-10-09T00:44:38;9.50;;;5.80;;
14768;SDS011;7476;49.404;11.152;2023-10-09T00:47:06;10.33;;;6.33;;
14768;SDS011;7476;49.404;11.152;2023-10-09T00:49:48;7.17;;;5.87;;
14768;SDS011;7476;49.404;11.152;2023-10-09T00:52:20;7.83;;;5.77;;
14768;SDS011;7476;49.404;11.152;2023-10-09T00:54:57;10.23;;;6.20;;
14768;SDS011;7476;49.404;11.152;2023-10-09T00:57:29;7.73;;;5.53;;
14768;SDS011;7476;49.404;11.152;2023-10-09T00:59:59;8.23;;;6.20;;
14768;SDS011;7476;49.404;11.152;2023-10-09T01:02:35;10.70;;;6.80;;
14768;SDS011;7476;49.404;11.152;2023-10-09T01:05:07;10.13;;;7.30;;
14768;SDS011;7476;49.404;11.152;2023-10-09T01:07:46;13.83;;;7.40;;
14768;SDS011;7476;49.404;11.152;2023-10-09T01:10:23;13.33;;;7.33;;
14768;SDS011;7476;49.404;11.152;2023-10-09T01:12:59;11.77;;;7.20;;
14768;SDS011;7476;49.404;11.152;2023-10-09T01:15:26;10.63;;;6.93;;
14768;SDS011;7476;49.404;11.152;2023-10-09T01:18:08;12.40;;;7.10;;
14768;SDS011;7476;49.404;11.152;2023-10-09T01:20:36;11.00;;;7.57;;
14768;SDS011;7476;49.404;11.152;2023-10-09T01:23:10;11.00;;;7.13;;
14768;SDS011;7476;49.404;11.152;2023-10-09T01:25:37;9.40;;;7.60;;
14768;SDS011;7476;49.404;11.152;2023-10-09T01:28:14;13.83;;;7.90;;
14768;SDS011;7476;49.404;11.152;2023-10-09T01:30:42;10.40;;;7.23;;
14768;SDS011;7476;49.404;11.152;2023-10-09T01:33:09;10.83;;;7.80;;
14768;SDS011;7476;49.404;11.152;2023-10-09T01:35:47;10.30;;;7.40;;
14768;SDS011;7476;49.404;11.152;2023-10-09T01:38:20;12.13;;;7.67;;
14768;SDS011;7476;49.404;11.152;2023-10-09T01:40:56;14.43;;;7.23;;
14768;SDS011;7476;49.404;11.152;2023-10-09T01:43:32;8.03;;;6.63;;
14768;SDS011;7476;49.404;11.152;2023-10-09T01:46:00;10.53;;;7.50;;
14768;SDS011;7476;49.404;11.152;2023-10-09T01:48:28;8.40;;;6.73;;
14768;SDS011;7476;49.404;11.152;2023-10-09T01:50:58;8.53;;;5.93;;
14768;SDS011;7476;49.404;11.152;2023-10-09T01:53:26;9.07;;;6.50;;
14768;SDS011;7476;49.404;11.152;2023-10-09T01:55:55;10.47;;;6.73;;
14768;SDS011;7476;49.404;11.152;2023-10-09T01:58:24;9.77;;;5.70;;
14768;SDS011;7476;49.404;11.152;2023-10-09T02:00:52;8.80;;;6.00;;
14768;SDS011;7476;49.404;11.152;2023-10-09T02:03:21;9.93;;;6.00;;
14768;SDS011;7476;49.404;11.152;2023-10-09T02:05:50;11.90;;;6.20;;
14768;SDS011;7476;49.404;11.152;2023-10-09T02:08:18;11.00;;;6.37;;
14768;SDS011;7476;49.404;11.152;2023-10-09T02:10:48;12.67;;;7.13;;
14768;SDS011;7476;49.404;11.152;2023-10-09T02:13:15;11.10;;;6.57;;
14768;SDS011;7476;49.404;11.152;2023-10-09T02:15:43;11.23;;;6.63;;
14768;SDS011;7476;49.404;11.152;2023-10-09T02:18:24;6.90;;;6.20;;
14768;SDS011;7476;49.404;11.152;2023-10-09T02:21:05;6.60;;;5.93;;
14768;SDS011;7476;49.404;11.152;2023-10-09T02:23:38;9.00;;;6.13;;
14768;SDS011;7476;49.404;11.152;2023-10-09T02:26:07;11.57;;;6.23;;
14768;SDS011;7476;49.404;11.152;2023-10-09T02:28:42;8.33;;;5.50;;
14768;SDS011;7476;49.404;11.152;2023-10-09T02:31:09;9.57;;;6.37;;
14768;SDS011;7476;49.404;11.152;2023-10-09T02:33:37;8.47;;;6.50;;
14768;SDS011;7476;49.404;11.152;2023-10-09T02:36:05;7.93;;;6.33;;
14768;SDS011;7476;49.404;11.152;2023-10-09T02:38:32;10.77;;;6.73;;
14768;SDS011;7476;49.404;11.152;2023-10-09T02:41:01;9.57;;;6.27;;
14768;SDS011;7476;49.404;11.152;2023-10-09T02:43:46;9.73;;;5.97;;
14768;SDS011;7476;49.404;11.152;2023-10-09T02:46:16;6.50;;;5.80;;
14768;SDS011;7476;49.404;11.152;2023-10-09T02:48:45;10.77;;;6.20;;
14768;SDS011;7476;49.404;11.152;2023-10-09T02:51:16;9.27;;;5.90;;
14768;SDS011;7476;49.404;11.152;2023-10-09T02:53:57;10.20;;;6.10;;
14768;SDS011;7476;49.404;11.152;2023-10-09T02:56:32;8.57;;;5.97;;
14768;SDS011;7476;49.404;11.152;2023-10-09T02:59:04;9.33;;;6.17;;
14768;SDS011;7476;49.404;11.152;2023-10-09T03:01:32;11.80;;;5.90;;
14768;SDS011;7476;49.404;11.152;2023-10-09T03:04:00;8.47;;;5.90;;
14768;SDS011;7476;49.404;11.152;2023-10-09T03:06:28;10.97;;;6.17;;
14768;SDS011;7476;49.404;11.152;2023-10-09T03:08:57;9.90;;;6.67;;
14768;SDS011;7476;49.404;11.152;2023-10-09T03:11:24;10.60;;;6.50;;
14768;SDS011;7476;49.404;11.152;2023-10-09T03:13:51;10.93;;;6.80;;
14768;SDS011;7476;49.404;11.152;2023-10-09T03:16:21;13.53;;;7.13;;
14768;SDS011;7476;49.404;11.152;2023-10-09T03:18:49;12.23;;;6.83;;
14768;SDS011;7476;49.404;11.152;2023-10-09T03:21:17;9.67;;;6.37;;
14768;SDS011;7476;49.404;11.152;2023-10-09T03:23:45;12.97;;;5.70;;
14768;SDS011;7476;49.404;11.152;2023-10-09T03:26:15;10.03;;;6.00;;
14768;SDS011;7476;49.404;11.152;2023-10-09T03:28:44;7.23;;;5.43;;
14768;SDS011;7476;49.404;11.152;2023-10-09T03:31:11;8.00;;;5.43;;
14768;SDS011;7476;49.404;11.152;2023-10-09T03:33:39;10.10;;;6.53;;
14768;SDS011;7476;49.404;11.152;2023-10-09T03:36:06;13.70;;;7.53;;
14768;SDS011;7476;49.404;11.152;2023-10-09T03:38:34;13.77;;;7.03;;
14768;SDS011;7476;49.404;11.152;2023-10-09T03:41:02;11.07;;;7.40;;
14768;SDS011;7476;49.404;11.152;2023-10-09T03:43:31;15.63;;;7.90;;
14768;SDS011;7476;49.404;11.152;2023-10-09T03:46:02;9.93;;;6.50;;
14768;SDS011;7476;49.404;11.152;2023-10-09T03:48:30;8.73;;;6.73;;
14768;SDS011;7476;49.404;11.152;2023-10-09T03:51:02;11.23;;;6.87;;
14768;SDS011;7476;49.404;11.152;2023-10-09T03:53:35;9.37;;;5.97;;
14768;SDS011;7476;49.404;11.152;2023-10-09T03:56:04;7.57;;;5.87;;
14768;SDS011;7476;49.404;11.152;2023-10-09T03:58:36;9.67;;;5.87;;
14768;SDS011;7476;49.404;11.152;2023-10-09T04:01:06;7.93;;;5.83;;
14768;SDS011;7476;49.404;11.152;2023-10-09T04:03:34;8.87;;;5.90;;
14768;SDS011;7476;49.404;11.152;2023-10-09T04:06:03;8.67;;;6.27;;
14768;SDS011;7476;49.404;11.152;2023-10-09T04:08:33;10.00;;;5.77;;
14768;SDS011;7476;49.404;11.152;2023-10-09T04:11:00;8.47;;;5.83;;
14768;SDS011;7476;49.404;11.152;2023-10-09T04:13:28;9.37;;;6.07;;
14768;SDS011;7476;49.404;11.152;2023-10-09T04:15:59;6.57;;;5.83;;
14768;SDS011;7476;49.404;11.152;2023-10-09T04:18:34;8.70;;;5.20;;
14768;SDS011;7476;49.404;11.152;2023-10-09T04:21:04;9.73;;;5.57;;
14768;SDS011;7476;49.404;11.152;2023-10-09T04:23:59;7.03;;;5.43;;
14768;SDS011;7476;49.404;11.152;2023-10-09T04:26:34;9.73;;;5.90;;
14768;SDS011;7476;49.404;11.152;2023-10-09T04:29:02;7.93;;;5.67;;
14768;SDS011;7476;49.404;11.152;2023-10-09T04:31:30;8.03;;;5.70;;
14768;SDS011;7476;49.404;11.152;2023-10-09T04:34:02;7.60;;;5.27;;
14768;SDS011;7476;49.404;11.152;2023-10-09T04:36:49;8.43;;;5.50;;
14768;SDS011;7476;49.404;11.152;2023-10-09T04:39:22;9.67;;;5.97;;
14768;SDS011;7476;49.404;11.152;2023-10-09T04:42:11;10.90;;;6.17;;
14768;SDS011;7476;49.404;11.152;2023-10-09T04:45:00;9.93;;;6.43;;
14768;SDS011;7476;49.404;11.152;2023-10-09T04:48:06;10.80;;;5.87;;
14768;SDS011;7476;49.404;11.152;2023-10-09T04:50:34;11.77;;;6.57;;
14768;SDS011;7476;49.404;11.152;2023-10-09T04:53:34;9.50;;;6.67;;
14768;SDS011;7476;49.404;11.152;2023-10-09T04:56:08;7.83;;;5.90;;
14768;SDS011;7476;49.404;11.152;2023-10-09T04:58:40;9.10;;;6.90;;
14768;SDS011;7476;49.404;11.152;2023-10-09T05:01:08;8.20;;;5.67;;
14768;SDS011;7476;49.404;11.152;2023-10-09T05:04:00;8.47;;;6.13;;
14768;SDS011;7476;49.404;11.152;2023-10-09T05:06:29;10.00;;;6.23;;
14768;SDS011;7476;49.404;11.152;2023-10-09T05:09:21;8.80;;;6.20;;
14768;SDS011;7476;49.404;11.152;2023-10-09T05:11:47;7.90;;;6.53;;
14768;SDS011;7476;49.404;11.152;2023-10-09T05:14:34;10.27;;;6.40;;
14768;SDS011;7476;49.404;11.152;2023-10-09T05:17:12;9.23;;;6.63;;
14768;SDS011;7476;49.404;11.152;2023-10-09T05:19:42;8.97;;;6.53;;
14768;SDS011;7476;49.404;11.152;2023-10-09T05:22:19;11.47;;;6.63;;
14768;SDS011;7476;49.404;11.152;2023-10-09T05:25:06;10.27;;;5.70;;
14768;SDS011;7476;49.404;11.152;2023-10-09T05:27:41;8.70;;;6.30;;
14768;SDS011;7476;49.404;11.152;2023-10-09T05:30:10;10.90;;;6.10;;
14768;SDS011;7476;49.404;11.152;2023-10-09T05:32:58;10.10;;;6.33;;
14768;SDS011;7476;49.404;11.152;2023-10-09T05:35:44;10.70;;;6.17;;
14768;SDS011;7476;49.404;11.152;2023-10-09T05:38:30;9.47;;;6.50;;
14768;SDS011;7476;49.404;11.152;2023-10-09T05:40:57;11.33;;;6.30;;
14768;SDS011;7476;49.404;11.152;2023-10-09T05:43:44;10.53;;;6.47;;
14768;SDS011;7476;49.404;11.152;2023-10-09T05:46:28;11.73;;;6.17;;
14768;SDS011;7476;49.404;11.152;2023-10-09T05:49:01;8.97;;;6.27;;
14768;SDS011;7476;49.404;11.152;2023-10-09T05:51:34;9.80;;;6.37;;
14768;SDS011;7476;49.404;11.152;2023-10-09T05:54:09;10.43;;;6.63;;
14768;SDS011;7476;49.404;11.152;2023-10-09T05:56:50;8.63;;;6.70;;
14768;SDS011;7476;49.404;11.152;2023-10-09T05:59:34;8.40;;;6.57;;
14768;SDS011;7476;49.404;11.152;2023-10-09T06:02:14;11.77;;;6.60;;
14768;SDS011;7476;49.404;11.152;2023-10-09T06:04:58;11.50;;;6.57;;
14768;SDS011;7476;49.404;11.152;2023-10-09T06:07:29;10.77;;;7.03;;
14768;SDS011;7476;49.404;11.152;2023-10-09T06:10:26;9.47;;;6.70;;
14768;SDS011;7476;49.404;11.152;2023-10-09T06:13:05;10.33;;;6.67;;
14768;SDS011;7476;49.404;11.152;2023-10-09T06:15:45;13.53;;;7.90;;
14768;SDS011;7476;49.404;11.152;2023-10-09T06:18:18;10.23;;;7.80;;
14768;SDS011;7476;49.404;11.152;2023-10-09T06:20:59;11.63;;;7.27;;
14768;SDS011;7476;49.404;11.152;2023-10-09T06:23:55;12.70;;;6.40;;
14768;SDS011;7476;49.404;11.152;2023-10-09T06:26:40;9.70;;;6.67;;
14768;SDS011;7476;49.404;11.152;2023-10-09T06:29:18;8.97;;;6.30;;
14768;SDS011;7476;49.404;11.152;2023-10-09T06:32:00;8.43;;;6.23;;
14768;SDS011;7476;49.404;11.152;2023-10-09T06:34:49;12.43;;;6.23;;
14768;SDS011;7476;49.404;11.152;2023-10-09T06:37:17;8.20;;;5.80;;
14768;SDS011;7476;49.404;11.152;2023-10-09T06:39:44;7.93;;;6.83;;
14768;SDS011;7476;49.404;11.152;2023-10-09T06:42:37;8.60;;;6.57;;
14768;SDS011;7476;49.404;11.152;2023-10-09T06:45:11;9.87;;;6.00;;
14768;SDS011;7476;49.404;11.152;2023-10-09T06:47:41;11.97;;;6.37;;
14768;SDS011;7476;49.404;11.152;2023-10-09T06:50:18;9.20;;;6.63;;
14768;SDS011;7476;49.404;11.152;2023-10-09T06:52:50;9.20;;;7.03;;
14768;SDS011;7476;49.404;11.152;2023-10-09T06:55:44;7.93;;;5.93;;
14768;SDS011;7476;49.404;11.152;2023-10-09T06:58:16;12.70;;;7.07;;
14768;SDS011;7476;49.404;11.152;2023-10-09T07:00:52;9.80;;;6.53;;
14768;SDS011;7476;49.404;11.152;2023-10-09T07:03:44;9.73;;;6.77;;
14768;SDS011;7476;49.404;11.152;2023-10-09T07:06:25;12.47;;;6.27;;
14768;SDS011;7476;49.404;11.152;2023-10-09T07:09:10;9.10;;;6.53;;
14768;SDS011;7476;49.404;11.152;2023-10-09T07:11:45;8.90;;;6.57;;
14768;SDS011;7476;49.404;11.152;2023-10-09T07:14:33;9.87;;;6.47;;
14768;SDS011;7476;49.404;11.152;2023-10-09T07:17:18;8.73;;;6.03;;
14768;SDS011;7476;49.404;11.152;2023-10-09T07:19:48;10.33;;;6.17;;
14768;SDS011;7476;49.404;11.152;2023-10-09T07:22:33;9.90;;;6.10;;
14768;SDS011;7476;49.404;11.152;2023-10-09T07:25:04;9.47;;;5.97;;
14768;SDS011;7476;49.404;11.152;2023-10-09T07:27:52;9.10;;;6.07;;
14768;SDS011;7476;49.404;11.152;2023-10-09T07:30:21;8.77;;;6.27;;
14768;SDS011;7476;49.404;11.152;2023-10-09T07:33:08;7.90;;;6.07;;
14768;SDS011;7476;49.404;11.152;2023-10-09T07:35:43;13.70;;;6.07;;
14768;SDS011;7476;49.404;11.152;2023-10-09T07:38:16;9.83;;;4.97;;
14768;SDS011;7476;49.404;11.152;2023-10-09T07:40:45;7.40;;;5.07;;
14768;SDS011;7476;49.404;11.152;2023-10-09T07:43:21;11.70;;;5.07;;
14768;SDS011;7476;49.404;11.152;2023-10-09T07:45:51;9.33;;;4.73;;
14768;SDS011;7476;49.404;11.152;2023-10-09T07:48:44;11.33;;;5.37;;
14768;SDS011;7476;49.404;11.152;2023-10-09T07:51:17;10.07;;;5.00;;
14768;SDS011;7476;49.404;11.152;2023-10-09T07:53:45;12.57;;;4.97;;
14768;SDS011;7476;49.404;11.152;2023-10-09T07:56:15;10.33;;;4.93;;
14768;SDS011;7476;49.404;11.152;2023-10-09T07:58:45;8.30;;;4.73;;
14768;SDS011;7476;49.404;11.152;2023-10-09T08:01:12;12.70;;;5.07;;
14768;SDS011;7476;49.404;11.152;2023-10-09T08:03:49;11.93;;;5.40;;
14768;SDS011;7476;49.404;11.152;2023-10-09T08:06:26;10.07;;;5.03;;
14768;SDS011;7476;49.404;11.152;2023-10-09T08:09:07;10.87;;;4.80;;
14768;SDS011;7476;49.404;11.152;2023-10-09T08:12:03;9.30;;;4.53;;
14768;SDS011;7476;49.404;11.152;2023-10-09T08:14:44;10.07;;;4.30;;
14768;SDS011;7476;49.404;11.152;2023-10-09T08:17:14;9.53;;;5.00;;
14768;SDS011;7476;49.404;11.152;2023-10-09T08:19:47;8.83;;;5.07;;
14768;SDS011;7476;49.404;11.152;2023-10-09T08:22:26;12.43;;;4.37;;
14768;SDS011;7476;49.404;11.152;2023-10-09T08:25:09;10.83;;;4.70;;
14768;SDS011;7476;49.404;11.152;2023-10-09T08:27:53;14.40;;;4.77;;
14768;SDS011;7476;49.404;11.152;2023-10-09T08:30:20;11.67;;;4.20;;
14768;SDS011;7476;49.404;11.152;2023-10-09T08:33:06;14.07;;;4.60;;
14768;SDS011;7476;49.404;11.152;2023-10-09T08:35:48;11.47;;;5.10;;
14768;SDS011;7476;49.404;11.152;2023-10-09T08:38:16;12.43;;;4.77;;
14768;SDS011;7476;49.404;11.152;2023-10-09T08:40:48;9.80;;;4.60;;
14768;SDS011;7476;49.404;11.152;2023-10-09T08:43:16;8.87;;;4.60;;
14768;SDS011;7476;49.404;11.152;2023-10-09T08:45:45;10.97;;;5.00;;
14768;SDS011;7476;49.404;11.152;2023-10-09T08:48:13;16.77;;;5.00;;
14768;SDS011;7476;49.404;11.152;2023-10-09T08:50:41;10.93;;;4.20;;
14768;SDS011;7476;49.404;11.152;2023-10-09T08:53:11;8.87;;;4.37;;
14768;SDS011;7476;49.404;11.152;2023-10-09T08:55:39;9.33;;;4.20;;
14768;SDS011;7476;49.404;11.152;2023-10-09T08:58:06;9.63;;;4.63;;
14768;SDS011;7476;49.404;11.152;2023-10-09T09:00:43;11.33;;;4.20;;
14768;SDS011;7476;49.404;11.152;2023-10-09T09:03:11;11.13;;;4.57;;
14768;SDS011;7476;49.404;11.152;2023-10-09T09:05:38;9.27;;;4.80;;
14768;SDS011;7476;49.404;11.152;2023-10-09T09:08:06;9.97;;;4.53;;
14768;SDS011;7476;49.404;11.152;2023-10-09T09:10:56;9.87;;;4.27;;
14768;SDS011;7476;49.404;11.152;2023-10-09T09:13:35;10.33;;;4.23;;
14768;SDS011;7476;49.404;11.152;2023-10-09T09:16:02;12.30;;;4.67;;
14768;SDS011;7476;49.404;11.152;2023-10-09T09:18:29;13.87;;;4.90;;
14768;SDS011;7476;49.404;11.152;2023-10-09T09:21:01;14.97;;;4.00;;
14768;SDS011;7476;49.404;11.152;2023-10-09T09:23:54;12.00;;;4.27;;
14768;SDS011;7476;49.404;11.152;2023-10-09T09:26:35;10.17;;;4.37;;
14768;SDS011;7476;49.404;11.152;2023-10-09T09:29:09;10.47;;;3.80;;
14768;SDS011;7476;49.404;11.152;2023-10-09T09:31:37;11.47;;;3.97;;
14768;SDS011;7476;49.404;11.152;2023-10-09T09:34:04;9.37;;;4.00;;
14768;SDS011;7476;49.404;11.152;2023-10-09T09:36:49;11.10;;;3.67;;
14768;SDS011;7476;49.404;11.152;2023-10-09T09:39:34;9.13;;;4.03;;
14768;SDS011;7476;49.404;11.152;2023-10-09T09:42:01;8.67;;;4.00;;
14768;SDS011;7476;49.404;11.152;2023-10-09T09:44:32;10.63;;;4.33;;
14768;SDS011;7476;49.404;11.152;2023-10-09T09:47:08;11.47;;;4.20;;
14768;SDS011;7476;49.404;11.152;2023-10-09T09:49:38;15.90;;;4.60;;
14768;SDS011;7476;49.404;11.152;2023-10-09T09:52:06;9.70;;;3.80;;
14768;SDS011;7476;49.404;11.152;2023-10-09T09:54:36;11.30;;;3.93;;
14768;SDS011;7476;49.404;11.152;2023-10-09T09:57:04;11.30;;;4.17;;
14768;SDS011;7476;49.404;11.152;2023-10-09T09:59:37;11.17;;;4.03;;
14768;SDS011;7476;49.404;11.152;2023-10-09T10:02:14;13.80;;;4.20;;
14768;SDS011;7476;49.404;11.152;2023-10-09T10:04:47;9.77;;;4.17;;
14768;SDS011;7476;49.404;11.152;2023-10-09T10:07:19;10.03;;;3.80;;
14768;SDS011;7476;49.404;11.152;2023-10-09T10:09:49;11.87;;;4.00;;
14768;SDS011;7476;49.404;11.152;2023-10-09T10:18:23;14.87;;;4.20;;
14768;SDS011;7476;49.404;11.152;2023-10-09T10:21:09;13.87;;;4.03;;
14768;SDS011;7476;49.404;11.152;2023-10-09T10:23:41;9.17;;;4.23;;
14768;SDS011;7476;49.404;11.152;2023-10-09T10:26:17;12.97;;;4.03;;
14768;SDS011;7476;49.404;11.152;2023-10-09T10:31:51;11.30;;;4.37;;
14768;SDS011;7476;49.404;11.152;2023-10-09T10:34:20;8.80;;;4.03;;
14768;SDS011;7476;49.404;11.152;2023-10-09T10:36:48;9.57;;;4.00;;
14768;SDS011;7476;49.404;11.152;2023-10-09T10:39:17;9.50;;;3.67;;
14768;SDS011;7476;49.404;11.152;2023-10-09T10:42:02;10.90;;;4.07;;
14768;SDS011;7476;49.404;11.152;2023-10-09T10:44:34;13.30;;;5.13;;
14768;SDS011;7476;49.404;11.152;2023-10-09T10:47:03;14.23;;;4.87;;
14768;SDS011;7476;49.404;11.152;2023-10-09T10:49:42;9.70;;;4.40;;
14768;SDS011;7476;49.404;11.152;2023-10-09T10:52:19;13.63;;;4.40;;
14768;SDS011;7476;49.404;11.152;2023-10-09T10:54:46;9.40;;;4.17;;
14768;SDS011;7476;49.404;11.152;2023-10-09T10:57:35;9.07;;;3.83;;
14768;SDS011;7476;49.404;11.152;2023-10-09T11:00:18;10.67;;;3.77;;
14768;SDS011;7476;49.404;11.152;2023-10-09T11:03:03;12.23;;;4.20;;
14768;SDS011;7476;49.404;11.152;2023-10-09T11:05:42;13.57;;;3.80;;
14768;SDS011;7476;49.404;11.152;2023-10-09T11:08:15;11.13;;;4.03;;
14768;SDS011;7476;49.404;11.152;2023-10-09T11:10:47;11.10;;;4.03;;
14768;SDS011;7476;49.404;11.152;2023-10-09T11:13:24;14.03;;;4.30;;
14768;SDS011;7476;49.404;11.152;2023-10-09T11:16:00;14.13;;;4.30;;
14768;SDS011;7476;49.404;11.152;2023-10-09T11:18:53;18.33;;;4.73;;
14768;SDS011;7476;49.404;11.152;2023-10-09T11:21:22;18.60;;;6.23;;
14768;SDS011;7476;49.404;11.152;2023-10-09T11:23:56;12.63;;;3.80;;
14768;SDS011;7476;49.404;11.152;2023-10-09T11:26:23;14.37;;;4.30;;
14768;SDS011;7476;49.404;11.152;2023-10-09T11:29:06;12.23;;;4.10;;
14768;SDS011;7476;49.404;11.152;2023-10-09T11:31:41;10.10;;;3.60;;
14768;SDS011;7476;49.404;11.152;2023-10-09T11:34:24;11.47;;;4.37;;
14768;SDS011;7476;49.404;11.152;2023-10-09T11:36:58;12.67;;;4.60;;
14768;SDS011;7476;49.404;11.152;2023-10-09T11:39:27;9.20;;;4.20;;
14768;SDS011;7476;49.404;11.152;2023-10-09T11:42:03;10.27;;;3.73;;
14768;SDS011;7476;49.404;11.152;2023-10-09T11:44:35;12.20;;;4.20;;
14768;SDS011;7476;49.404;11.152;2023-10-09T11:47:06;13.57;;;4.37;;
14768;SDS011;7476;49.404;11.152;2023-10-09T11:49:58;14.47;;;4.13;;
14768;SDS011;7476;49.404;11.152;2023-10-09T11:52:54;12.73;;;4.27;;
14768;SDS011;7476;49.404;11.152;2023-10-09T11:55:34;14.43;;;4.90;;
14768;SDS011;7476;49.404;11.152;2023-10-09T11:58:00;7.67;;;3.70;;
14768;SDS011;7476;49.404;11.152;2023-10-09T12:00:30;13.03;;;4.77;;
14768;SDS011;7476;49.404;11.152;2023-10-09T12:03:09;13.17;;;3.93;;
14768;SDS011;7476;49.404;11.152;2023-10-09T12:05:36;10.07;;;3.83;;
14768;SDS011;7476;49.404;11.152;2023-10-09T12:08:07;12.10;;;4.27;;
14768;SDS011;7476;49.404;11.152;2023-10-09T12:10:34;13.63;;;4.30;;
14768;SDS011;7476;49.404;11.152;2023-10-09T12:13:03;11.77;;;4.10;;
14768;SDS011;7476;49.404;11.152;2023-10-09T12:15:31;10.93;;;4.60;;
14768;SDS011;7476;49.404;11.152;2023-10-09T12:18:03;8.93;;;4.50;;
14768;SDS011;7476;49.404;11.152;2023-10-09T12:20:39;21.20;;;5.10;;
14768;SDS011;7476;49.404;11.152;2023-10-09T12:23:07;13.67;;;4.33;;
14768;SDS011;7476;49.404;11.152;2023-10-09T12:25:40;15.07;;;4.13;;
14768;SDS011;7476;49.404;11.152;2023-10-09T12:28:09;12.90;;;4.77;;
14768;SDS011;7476;49.404;11.152;2023-10-09T12:30:38;10.47;;;4.30;;
14768;SDS011;7476;49.404;11.152;2023-10-09T12:33:06;12.10;;;3.90;;
14768;SDS011;7476;49.404;11.152;2023-10-09T12:35:37;18.07;;;4.53;;
14768;SDS011;7476;49.404;11.152;2023-10-09T12:38:05;10.87;;;4.23;;
14768;SDS011;7476;49.404;11.152;2023-10-09T12:40:35;13.40;;;4.87;;
14768;SDS011;7476;49.404;11.152;2023-10-09T12:43:03;15.87;;;4.27;;
14768;SDS011;7476;49.404;11.152;2023-10-09T12:45:33;12.07;;;4.57;;
14768;SDS011;7476;49.404;11.152;2023-10-09T12:48:02;11.27;;;4.33;;
14768;SDS011;7476;49.404;11.152;2023-10-09T12:50:33;10.60;;;4.07;;
14768;SDS011;7476;49.404;11.152;2023-10-09T12:53:06;10.43;;;4.17;;
14768;SDS011;7476;49.404;11.152;2023-10-09T12:55:36;11.37;;;4.30;;
14768;SDS011;7476;49.404;11.152;2023-10-09T12:58:05;12.60;;;4.43;;
14768;SDS011;7476;49.404;11.152;2023-10-09T13:00:34;17.50;;;4.27;;
14768;SDS011;7476;49.404;11.152;2023-10-09T13:03:06;10.73;;;3.90;;
14768;SDS011;7476;49.404;11.152;2023-10-09T13:05:42;13.30;;;4.13;;
14768;SDS011;7476;49.404;11.152;2023-10-09T13:08:17;14.37;;;4.20;;
14768;SDS011;7476;49.404;11.152;2023-10-09T13:10:46;11.23;;;4.17;;
14768;SDS011;7476;49.404;11.152;2023-10-09T13:13:19;11.70;;;4.10;;
14768;SDS011;7476;49.404;11.152;2023-10-09T13:15:46;13.97;;;4.57;;
14768;SDS011;7476;49.404;11.152;2023-10-09T13:18:14;12.97;;;3.97;;
14768;SDS011;7476;49.404;11.152;2023-10-09T13:20:41;10.80;;;4.00;;
14768;SDS011;7476;49.404;11.152;2023-10-09T13:23:07;10.97;;;4.30;;
14768;SDS011;7476;49.404;11.152;2023-10-09T13:25:39;9.43;;;3.83;;
14768;SDS011;7476;49.404;11.152;2023-10-09T13:28:06;13.23;;;4.07;;
14768;SDS011;7476;49.404;11.152;2023-10-09T13:30:37;11.73;;;4.47;;
14768;SDS011;7476;49.404;11.152;2023-10-09T13:33:15;10.00;;;4.20;;
14768;SDS011;7476;49.404;11.152;2023-10-09T13:35:46;12.10;;;3.80;;
14768;SDS011;7476;49.404;11.152;2023-10-09T13:38:15;11.93;;;3.93;;
14768;SDS011;7476;49.404;11.152;2023-10-09T13:40:42;10.53;;;4.13;;
14768;SDS011;7476;49.404;11.152;2023-10-09T13:43:09;9.17;;;3.10;;
14768;SDS011;7476;49.404;11.152;2023-10-09T13:45:41;11.67;;;4.67;;
14768;SDS011;7476;49.404;11.152;2023-10-09T13:48:15;10.53;;;4.07;;
14768;SDS011;7476;49.404;11.152;2023-10-09T13:50:45;11.63;;;4.03;;
14768;SDS011;7476;49.404;11.152;2023-10-09T13:53:12;10.97;;;3.63;;
14768;SDS011;7476;49.404;11.152;2023-10-09T13:55:40;9.70;;;3.67;;
14768;SDS011;7476;49.404;11.152;2023-10-09T13:58:08;9.00;;;4.50;;
14768;SDS011;7476;49.404;11.152;2023-10-09T14:00:38;8.37;;;4.33;;
14768;SDS011;7476;49.404;11.152;2023-10-09T14:03:07;11.93;;;4.23;;
14768;SDS011;7476;49.404;11.152;2023-10-09T14:05:39;8.57;;;4.27;;
14768;SDS011;7476;49.404;11.152;2023-10-09T14:08:17;9.23;;;4.10;;
14768;SDS011;7476;49.404;11.152;2023-10-09T14:10:47;9.90;;;4.23;;
14768;SDS011;7476;49.404;11.152;2023-10-09T14:13:13;9.87;;;3.80;;
14768;SDS011;7476;49.404;11.152;2023-10-09T14:15:42;7.13;;;3.93;;
14768;SDS011;7476;49.404;11.152;2023-10-09T14:18:11;8.77;;;3.90;;
14768;SDS011;7476;49.404;11.152;2023-10-09T14:20:39;11.13;;;4.10;;
14768;SDS011;7476;49.404;11.152;2023-10-09T14:23:06;9.07;;;4.07;;
14768;SDS011;7476;49.404;11.152;2023-10-09T14:25:37;8.90;;;4.13;;
14768;SDS011;7476;49.404;11.152;2023-10-09T14:28:05;7.70;;;3.60;;
14768;SDS011;7476;49.404;11.152;2023-10-09T14:30:33;11.83;;;3.87;;
14768;SDS011;7476;49.404;11.152;2023-10-09T14:33:07;8.93;;;3.53;;
14768;SDS011;7476;49.404;11.152;2023-10-09T14:35:37;8.10;;;3.60;;
14768;SDS011;7476;49.404;11.152;2023-10-09T14:38:07;11.13;;;4.30;;
14768;SDS011;7476;49.404;11.152;2023-10-09T14:40:37;7.67;;;3.80;;
14768;SDS011;7476;49.404;11.152;2023-10-09T14:43:06;9.70;;;4.43;;
14768;SDS011;7476;49.404;11.152;2023-10-09T14:45:41;8.67;;;4.07;;
14768;SDS011;7476;49.404;11.152;2023-10-09T14:48:09;9.07;;;3.47;;
14768;SDS011;7476;49.404;11.152;2023-10-09T14:50:36;8.47;;;3.60;;
14768;SDS011;7476;49.404;11.152;2023-10-09T14:53:13;8.57;;;3.60;;
14768;SDS011;7476;49.404;11.152;2023-10-09T14:55:42;9.20;;;4.00;;
14768;SDS011;7476;49.404;11.152;2023-10-09T14:58:10;8.40;;;4.20;;
14768;SDS011;7476;49.404;11.152;2023-10-09T15:00:37;9.60;;;3.97;;
14768;SDS011;7476;49.404;11.152;2023-10-09T15:03:11;8.77;;;4.37;;
14768;SDS011;7476;49.404;11.152;2023-10-09T15:05:39;7.17;;;3.80;;
14768;SDS011;7476;49.404;11.152;2023-10-09T15:08:07;8.57;;;3.70;;
14768;SDS011;7476;49.404;11.152;2023-10-09T15:10:43;7.23;;;4.10;;
14768;SDS011;7476;49.404;11.152;2023-10-09T15:13:11;8.97;;;4.60;;
14768;SDS011;7476;49.404;11.152;2023-10-09T15:15:40;10.17;;;4.30;;
14768;SDS011;7476;49.404;11.152;2023-10-09T15:18:07;8.10;;;4.00;;
14768;SDS011;7476;49.404;11.152;2023-10-09T15:20:37;9.10;;;4.00;;
14768;SDS011;7476;49.404;11.152;2023-10-09T15:23:04;15.73;;;7.53;;
14768;SDS011;7476;49.404;11.152;2023-10-09T15:25:31;17.47;;;8.43;;
14768;SDS011;7476;49.404;11.152;2023-10-09T15:28:02;11.13;;;5.70;;